Aviation Digital Data Service (ADDS)

Output produced by METARs form (0439 UTC 01 November 2014)
found at http://www.aviationweather.gov/adds/metars/
 
KFIG 010354Z AUTO 03003KT 10SM OVC065 04/03 A2989 RMK AO2 SLP130 T00390028
KFIG 010254Z AUTO 36003KT 10SM OVC060 04/03 A2989 RMK AO2 RAE16 SLP131 P0000 60002 T00390033 58000
KFIG 010154Z AUTO 03003KT 9SM -RA FEW032 OVC046 04/03 A2989 RMK AO2 SLP133 P0001 T00440033
KFIG 010054Z AUTO 36004KT 9SM -RA OVC045 04/03 A2989 RMK AO2 SLP132 P0001 T00440033
KFIG 010035Z AUTO 34004KT 7SM -RA SCT027 OVC035 04/04 A2989 RMK AO2 P0001 T00440039
KFIG 312354Z AUTO 33003KT 8SM -RA BKN025 BKN030 OVC037 04/04 A2989 RMK AO2 SLP132 P0002 60006 T00440039 10078 20044 51010
KFIG 312347Z AUTO 33003KT 7SM -RA BKN028 OVC037 04/04 A2989 RMK AO2 P0002 T00440039
KFIG 312313Z AUTO 34004KT 7SM -RA SCT025 OVC036 05/04 A2989 RMK AO2 P0001 T00500039
KFIG 312254Z AUTO 34003KT 7SM -RA BKN025 BKN031 OVC040 05/04 A2989 RMK AO2 SLP130 P0003 T00500039
KFIG 312154Z AUTO 00000KT 9SM -RA OVC027 06/02 A2987 RMK AO2 SLP125 P0001 T00610017
KFIG 312130Z AUTO 00000KT 10SM -RA BKN028 OVC036 06/03 A2987 RMK AO2 P0000 T00610028
KFIG 312054Z AUTO 15004KT 10SM -RA FEW034 OVC050 07/02 A2986 RMK AO2 RAB20 SLP120 P0000 60000 T00720017 56007
KFIG 311954Z AUTO 09005KT 10SM OVC030 08/01 A2986 RMK AO2 SLP120 T00780011
KFIG 311854Z AUTO 08005KT 10SM BKN030 BKN038 OVC050 08/02 A2987 RMK AO2 SLP123 T00780017
KFIG 311754Z AUTO 03003KT 10SM BKN042 OVC050 07/03 A2988 RMK AO2 SLP126 T00720028 10072 20039 58020
KFIG 311654Z AUTO 03004KT 10SM BKN034 OVC047 07/02 A2991 RMK AO2 SLP138 T00670022
KFIG 311554Z AUTO 04003KT 10SM OVC041 06/02 A2994 RMK AO2 SLP146 T00610022
KFIG 311454Z AUTO 01004KT 10SM FEW042 OVC050 06/02 A2995 RMK AO2 SLP149 T00560022 58007
KFIG 311354Z AUTO 04004KT 10SM OVC046 04/02 A2996 RMK AO2 SLP153 T00440022
KFIG 311254Z AUTO 02004KT 10SM FEW035 OVC045 04/02 A2997 RMK AO2 SLP156 T00390022
KFIG 311154Z AUTO 04004KT 10SM FEW029 OVC047 04/02 A2997 RMK AO2 SLP156 T00390017 10056 20039 55003
KFIG 311054Z AUTO 00000KT 10SM OVC047 04/02 A2997 RMK AO2 SLP156 T00390017
KFIG 310954Z AUTO 35004KT 10SM OVC045 04/02 A2998 RMK AO2 SLP159 T00390017
KFIG 310854Z AUTO 02004KT 10SM OVC046 04/02 A2998 RMK AO2 SLP158 T00390022 58011
KFIG 310754Z AUTO 04003KT 10SM OVC045 04/02 A2999 RMK AO2 SLP162 T00440022
KFIG 310654Z AUTO 00000KT 10SM OVC044 05/02 A3000 RMK AO2 SLP165 T00500022
KFIG 310554Z AUTO 00000KT 10SM OVC048 06/03 A3001 RMK AO2 SLP169 T00560028 10072 20050 58006
KFIG 310454Z AUTO 00000KT 10SM OVC048 06/02 A3002 RMK AO2 SLP172 T00560022 401110050
KFIG 310354Z AUTO 00000KT 10SM OVC046 06/02 A3003 RMK AO2 SLP174 T00560022
KFIG 310254Z AUTO 00000KT 10SM OVC050 06/02 A3003 RMK AO2 SLP176 T00560022 56003
KFIG 310154Z AUTO 00000KT 10SM OVC050 06/02 A3003 RMK AO2 SLP177 T00610017
KFIG 310054Z AUTO 00000KT 10SM OVC055 07/01 A3003 RMK AO2 SLP176 T00670011
KFIG 302354Z AUTO 33004KT 10SM OVC055 07/01 A3004 RMK AO2 SLP180 T00670011 10111 20067 50005
KFIG 302254Z AUTO 34004KT 10SM BKN055 08/01 A3004 RMK AO2 SLP179 T00780006
KFIG 302154Z AUTO 34003KT 10SM OVC050 08/01 A3003 RMK AO2 SLP176 T00830011
KFIG 302054Z AUTO 33005KT 10SM OVC050 09/01 A3002 RMK AO2 SLP173 T00940011 56005
KFIG 301954Z AUTO 28008KT 10SM SCT046 11/01 A3002 RMK AO2 SLP173 T01060006
KFIG 301854Z AUTO 30007KT 10SM OVC042 09/00 A3003 RMK AO2 SLP176 T00940000
KFIG 301754Z AUTO 28004KT 10SM OVC041 09/01 A3004 RMK AO2 SLP179 T00940006 10100 20056 58008
KFIG 301654Z AUTO 28007KT 10SM OVC040 09/01 A3005 RMK AO2 SLP183 T00890006